createdAt,value
2023-02-11T00:00:42.621Z,3.00
2023-02-11T00:03:09.880Z,3.00
2023-02-11T00:05:36.637Z,3.50
2023-02-11T00:08:03.729Z,2.50
2023-02-11T00:10:30.454Z,3.20
2023-02-11T00:12:57.083Z,2.90
2023-02-11T00:15:23.682Z,2.60
2023-02-11T00:17:50.394Z,2.50
2023-02-11T00:20:17.239Z,2.90
2023-02-11T00:22:43.878Z,3.30
2023-02-11T00:25:10.521Z,2.80
2023-02-11T00:27:37.629Z,3.00
2023-02-11T00:30:05.418Z,2.80
2023-02-11T00:32:32.204Z,3.70
2023-02-11T00:34:58.873Z,2.50
2023-02-11T00:37:25.561Z,2.80
2023-02-11T00:39:52.292Z,3.10
2023-02-11T00:42:18.892Z,4.50
2023-02-11T00:44:45.656Z,4.10
2023-02-11T00:47:12.560Z,3.30
2023-02-11T00:49:40.478Z,2.70
2023-02-11T00:52:07.378Z,4.80
2023-02-11T00:54:34.596Z,3.90
2023-02-11T00:57:01.433Z,3.30
2023-02-11T00:59:28.371Z,4.40
2023-02-11T01:01:55.077Z,2.90
2023-02-11T01:04:21.808Z,4.30
2023-02-11T01:06:52.235Z,3.60
2023-02-11T01:09:21.216Z,5.80
2023-02-11T01:11:48.261Z,4.90
2023-02-11T01:14:15.062Z,2.90
2023-02-11T01:16:42.580Z,5.50
2023-02-11T01:19:09.817Z,7.80
2023-02-11T01:21:36.717Z,4.10
2023-02-11T01:24:03.645Z,4.80
2023-02-11T01:26:30.398Z,2.90
2023-02-11T01:29:00.140Z,7.50
2023-02-11T01:31:27.890Z,3.80
2023-02-11T01:33:54.674Z,6.40
2023-02-11T01:36:21.320Z,6.30
2023-02-11T01:38:49.932Z,3.90
2023-02-11T01:41:16.746Z,3.90
2023-02-11T01:43:50.160Z,4.40
2023-02-11T01:46:31.930Z,5.10
2023-02-11T01:49:07.432Z,7.00
2023-02-11T01:51:39.491Z,4.10
2023-02-11T01:54:27.709Z,8.90
2023-02-11T01:57:17.123Z,4.10
2023-02-11T01:59:54.889Z,3.50
2023-02-11T02:02:27.285Z,5.00
2023-02-11T02:07:46.078Z,4.20
2023-02-11T02:10:18.840Z,5.30
2023-02-11T02:12:46.371Z,4.40
2023-02-11T02:15:20.447Z,4.30
2023-02-11T02:17:58.759Z,3.20
2023-02-11T02:20:47.123Z,3.20
2023-02-11T02:23:39.747Z,3.70
2023-02-11T02:26:31.400Z,5.40
2023-02-11T02:29:19.299Z,3.70
2023-02-11T02:32:03.853Z,3.60
2023-02-11T02:34:42.150Z,2.90
2023-02-11T02:37:17.381Z,3.70
2023-02-11T02:39:46.612Z,4.00
2023-02-11T02:42:14.517Z,3.00
2023-02-11T02:44:41.250Z,1.90
2023-02-11T02:47:07.868Z,4.10
2023-02-11T02:49:34.498Z,6.30
2023-02-11T02:52:18.550Z,3.60
2023-02-11T02:55:11.773Z,1.90
2023-02-11T02:57:50.415Z,3.30
2023-02-11T03:00:23.561Z,2.90
2023-02-11T03:02:59.386Z,2.50
2023-02-11T03:05:45.256Z,3.70
2023-02-11T03:08:30.559Z,5.40
2023-02-11T03:10:59.225Z,14.30
2023-02-11T03:13:33.571Z,11.90
2023-02-11T03:16:08.538Z,6.80
2023-02-11T03:18:38.249Z,13.10
2023-02-11T03:21:07.266Z,14.40
2023-02-11T03:23:41.361Z,9.40
2023-02-11T03:26:10.403Z,4.80
2023-02-11T03:28:52.579Z,6.60
2023-02-11T03:31:32.892Z,3.20
2023-02-11T03:34:08.750Z,6.60
2023-02-11T03:37:04.378Z,5.40
2023-02-11T03:39:37.770Z,4.90
2023-02-11T03:42:08.705Z,4.60
2023-02-11T03:44:42.092Z,5.20
2023-02-11T03:47:12.443Z,4.40
2023-02-11T03:49:42.540Z,3.90
2023-02-11T03:52:11.564Z,3.30
2023-02-11T03:54:42.253Z,4.00
2023-02-11T03:57:09.237Z,3.20
2023-02-11T03:59:51.374Z,2.80
2023-02-11T04:02:18.748Z,3.50
2023-02-11T04:04:46.375Z,3.60
2023-02-11T04:07:13.236Z,3.10
2023-02-11T04:09:39.894Z,4.60
2023-02-11T04:12:06.927Z,4.60
2023-02-11T04:14:33.709Z,4.90
2023-02-11T04:17:00.371Z,3.10
2023-02-11T04:19:27.042Z,2.90
2023-02-11T04:21:53.632Z,4.40
2023-02-11T04:24:20.296Z,4.30
2023-02-11T04:26:47.049Z,3.80
2023-02-11T04:29:13.687Z,2.90
2023-02-11T04:31:40.506Z,3.60
2023-02-11T04:34:07.114Z,6.10
2023-02-11T04:36:33.794Z,3.50
2023-02-11T04:39:00.524Z,3.70
2023-02-11T04:41:27.327Z,4.40
2023-02-11T04:43:53.938Z,2.80
2023-02-11T04:46:20.779Z,2.90
2023-02-11T04:48:47.475Z,2.90
2023-02-11T04:51:14.342Z,5.00
2023-02-11T04:53:41.334Z,3.00
2023-02-11T04:56:08.165Z,3.00
2023-02-11T04:58:34.936Z,2.90
2023-02-11T05:01:14.064Z,4.40
2023-02-11T05:03:41.232Z,3.40
2023-02-11T05:06:09.770Z,4.30
2023-02-11T05:08:36.382Z,3.60
2023-02-11T05:11:03.196Z,3.40
2023-02-11T05:13:30.189Z,5.00
2023-02-11T05:15:57.075Z,2.70
2023-02-11T05:18:24.086Z,4.20
2023-02-11T05:20:50.720Z,3.30
2023-02-11T05:23:17.371Z,2.90
2023-02-11T05:25:43.993Z,2.40
2023-02-11T05:28:10.680Z,3.60
2023-02-11T05:30:37.420Z,2.90
2023-02-11T05:33:04.116Z,2.70
2023-02-11T05:35:30.763Z,4.20
2023-02-11T05:37:57.403Z,4.10
2023-02-11T05:40:24.037Z,4.00
2023-02-11T05:42:50.705Z,4.80
2023-02-11T05:45:17.336Z,5.30
2023-02-11T05:47:43.922Z,5.40
2023-02-11T05:50:10.546Z,4.10
2023-02-11T05:52:37.238Z,6.60
2023-02-11T05:55:04.403Z,4.10
2023-02-11T05:57:30.997Z,4.80
2023-02-11T05:59:57.647Z,3.90
2023-02-11T06:02:24.449Z,6.60
2023-02-11T06:04:51.129Z,4.70
2023-02-11T06:09:46.335Z,7.80
2023-02-11T06:12:13.119Z,6.00
2023-02-11T06:14:39.906Z,5.70
2023-02-11T06:17:06.619Z,3.50
2023-02-11T06:19:33.349Z,6.10
2023-02-11T06:22:00.108Z,5.80
2023-02-11T06:24:51.087Z,5.60
2023-02-11T06:27:13.994Z,4.50
2023-02-11T06:29:40.741Z,5.90
2023-02-11T06:32:10.089Z,7.00
2023-02-11T06:34:42.790Z,6.90
2023-02-11T06:37:09.428Z,4.70
2023-02-11T06:39:36.092Z,11.50
2023-02-11T06:42:02.800Z,6.40
2023-02-11T06:44:29.401Z,5.90
2023-02-11T06:49:22.582Z,5.70
2023-02-11T06:51:49.188Z,6.70
2023-02-11T06:54:15.913Z,5.00
2023-02-11T06:56:42.554Z,5.20
2023-02-11T06:59:12.944Z,3.80
2023-02-11T07:01:39.565Z,5.00
2023-02-11T07:04:06.897Z,4.00
2023-02-11T07:06:34.020Z,5.10
2023-02-11T07:09:00.723Z,4.30
2023-02-11T07:11:29.151Z,4.40
2023-02-11T07:14:02.839Z,5.80
2023-02-11T07:16:29.977Z,5.90
2023-02-11T07:18:56.592Z,7.10
2023-02-11T07:21:24.389Z,11.00
2023-02-11T07:23:52.017Z,10.40
2023-02-11T07:26:23.009Z,4.90
2023-02-11T07:28:50.954Z,5.00
2023-02-11T07:31:27.837Z,7.30
2023-02-11T07:33:57.028Z,9.10
2023-02-11T07:36:23.819Z,5.00
2023-02-11T07:38:50.545Z,7.40
2023-02-11T07:41:21.345Z,7.40
2023-02-11T07:43:48.427Z,7.70
2023-02-11T07:46:20.896Z,8.50
2023-02-11T07:48:47.758Z,11.10
2023-02-11T07:51:20.519Z,10.20
2023-02-11T07:53:47.601Z,6.40
2023-02-11T07:56:15.879Z,10.70
2023-02-11T07:58:43.686Z,7.10
2023-02-11T08:01:12.875Z,8.20
2023-02-11T08:03:41.397Z,8.00
2023-02-11T08:06:11.222Z,7.80
2023-02-11T08:08:37.940Z,7.00
2023-02-11T08:11:13.155Z,8.80
2023-02-11T08:13:40.395Z,8.50
2023-02-11T08:16:07.998Z,8.70
2023-02-11T08:18:35.365Z,6.10
2023-02-11T08:21:06.739Z,6.90
2023-02-11T08:23:33.924Z,5.40
2023-02-11T08:26:05.376Z,6.60
2023-02-11T08:28:32.219Z,8.10
2023-02-11T08:31:04.637Z,5.90
2023-02-11T08:33:31.296Z,7.80
2023-02-11T08:35:57.947Z,6.40
2023-02-11T08:38:24.543Z,11.00
2023-02-11T08:40:51.429Z,7.80
2023-02-11T08:43:18.314Z,10.70
2023-02-11T08:45:45.070Z,8.60
2023-02-11T08:48:11.682Z,11.20
2023-02-11T08:50:39.782Z,10.60
2023-02-11T08:53:06.423Z,8.30
2023-02-11T08:55:33.033Z,7.70
2023-02-11T08:57:59.661Z,12.50
2023-02-11T09:00:26.305Z,7.00
2023-02-11T09:02:53.605Z,8.70
2023-02-11T09:05:20.208Z,6.50
2023-02-11T09:07:46.838Z,6.60
2023-02-11T09:10:13.510Z,8.40
2023-02-11T09:12:40.148Z,8.70
2023-02-11T09:15:07.259Z,8.40
2023-02-11T09:17:33.921Z,10.50
2023-02-11T09:20:00.814Z,11.70
2023-02-11T09:22:27.468Z,18.00
2023-02-11T09:24:54.115Z,11.80
2023-02-11T09:27:20.866Z,10.80
2023-02-11T09:29:47.541Z,11.60
2023-02-11T09:32:14.341Z,11.40
2023-02-11T09:34:41.426Z,13.20
2023-02-11T09:37:08.096Z,14.40
2023-02-11T09:39:34.723Z,11.60
2023-02-11T09:42:07.074Z,16.40
2023-02-11T09:47:06.359Z,16.80
2023-02-11T09:49:59.056Z,14.70
2023-02-11T09:52:44.008Z,23.10
2023-02-11T09:55:37.744Z,15.90
2023-02-11T09:58:12.613Z,25.10
2023-02-11T10:00:52.907Z,20.30
2023-02-11T10:03:48.770Z,15.00
2023-02-11T10:06:40.286Z,12.70
2023-02-11T10:09:48.112Z,10.60
2023-02-11T10:12:20.649Z,16.10
2023-02-11T10:15:06.036Z,17.30
2023-02-11T10:17:48.186Z,20.10
2023-02-11T10:20:20.929Z,18.60
2023-02-11T10:22:54.568Z,19.80
2023-02-11T10:25:36.579Z,19.20
2023-02-11T10:28:19.700Z,19.60
2023-02-11T10:30:53.104Z,17.20
2023-02-11T10:33:47.911Z,17.60
2023-02-11T10:36:17.577Z,19.00
2023-02-11T10:38:45.289Z,17.90
2023-02-11T10:41:26.285Z,19.00
2023-02-11T10:43:53.035Z,20.60
2023-02-11T10:46:24.366Z,22.70
2023-02-11T10:48:54.020Z,23.30
2023-02-11T10:51:25.556Z,18.70
2023-02-11T10:54:04.276Z,21.00
2023-02-11T10:56:34.649Z,21.90
2023-02-11T10:59:20.343Z,19.90
2023-02-11T11:02:00.979Z,26.00
2023-02-11T11:04:30.904Z,23.80
2023-02-11T11:07:18.163Z,22.90
2023-02-11T11:10:02.558Z,23.40
2023-02-11T11:12:31.699Z,29.10
2023-02-11T11:14:59.936Z,19.90
2023-02-11T11:17:29.897Z,23.90
2023-02-11T11:20:20.414Z,21.90
2023-02-11T11:22:52.762Z,26.90
2023-02-11T11:25:30.614Z,23.90
2023-02-11T11:28:01.015Z,25.30
2023-02-11T11:30:34.059Z,14.60
2023-02-11T11:33:02.026Z,20.30
2023-02-11T11:35:33.066Z,23.00
2023-02-11T11:38:05.403Z,21.90
2023-02-11T11:40:34.218Z,25.10
2023-02-11T11:43:30.163Z,21.90
2023-02-11T11:45:59.688Z,17.40
2023-02-11T11:48:40.334Z,23.50
2023-02-11T11:51:12.159Z,20.00
2023-02-11T11:53:38.796Z,38.60
2023-02-11T11:56:19.978Z,38.50
2023-02-11T11:58:47.225Z,42.80
2023-02-11T12:01:38.177Z,72.60
2023-02-11T12:04:28.557Z,101.50
2023-02-11T12:07:25.714Z,162.50
2023-02-11T12:10:15.162Z,31.40
2023-02-11T12:12:55.924Z,52.60
2023-02-11T12:15:30.035Z,31.00
2023-02-11T12:18:24.828Z,25.10
2023-02-11T12:21:04.344Z,21.80
2023-02-11T12:24:07.434Z,30.60
2023-02-11T12:26:53.338Z,20.90
2023-02-11T12:29:31.942Z,19.70
2023-02-11T12:32:25.665Z,21.90
2023-02-11T12:35:01.661Z,20.40
2023-02-11T12:37:49.600Z,16.60
2023-02-11T12:40:20.135Z,18.20
2023-02-11T12:43:18.032Z,18.10
2023-02-11T12:46:00.955Z,16.90
2023-02-11T12:49:00.294Z,17.10
2023-02-11T12:51:42.101Z,16.00
2023-02-11T12:54:21.727Z,20.20
2023-02-11T12:57:07.456Z,17.30
2023-02-11T13:00:11.873Z,15.60
2023-02-11T13:02:49.624Z,13.40
2023-02-11T13:05:25.053Z,16.70
2023-02-11T13:07:56.038Z,17.90
2023-02-11T13:10:28.154Z,18.60
2023-02-11T13:13:16.088Z,18.10
2023-02-11T13:15:58.697Z,19.50
2023-02-11T13:19:16.833Z,21.40
2023-02-11T13:22:11.424Z,22.60
2023-02-11T13:25:06.151Z,21.60
2023-02-11T13:27:44.034Z,27.40
2023-02-11T13:30:28.182Z,21.60
2023-02-11T13:32:54.851Z,25.30
2023-02-11T13:35:32.329Z,20.60
2023-02-11T13:38:01.535Z,23.10
2023-02-11T13:40:39.599Z,23.20
2023-02-11T13:45:38.641Z,19.50
2023-02-11T13:48:13.639Z,21.10
2023-02-11T13:50:48.481Z,22.40
2023-02-11T13:53:17.140Z,22.40
2023-02-11T13:55:47.389Z,21.80
2023-02-11T13:58:13.969Z,24.40
2023-02-11T14:00:40.596Z,22.70
2023-02-11T14:03:32.202Z,25.20
2023-02-11T14:06:26.742Z,21.80
2023-02-11T14:09:09.186Z,23.70
2023-02-11T14:11:41.902Z,24.20
2023-02-11T14:14:16.245Z,19.80
2023-02-11T14:16:58.258Z,21.90
2023-02-11T14:19:30.797Z,19.60
2023-02-11T14:22:04.318Z,23.00
2023-02-11T14:24:33.948Z,17.80
2023-02-11T14:27:00.483Z,18.40
2023-02-11T14:29:58.290Z,21.10
2023-02-11T14:32:56.008Z,19.10
2023-02-11T14:35:41.738Z,18.50
2023-02-11T14:38:35.796Z,18.50
2023-02-11T14:41:22.480Z,20.50
2023-02-11T14:43:53.069Z,18.10
2023-02-11T14:46:22.327Z,17.50
2023-02-11T14:48:53.396Z,19.90
2023-02-11T14:51:27.833Z,24.10
2023-02-11T14:54:15.289Z,19.60
2023-02-11T14:56:42.458Z,23.20
2023-02-11T14:59:21.205Z,18.00
2023-02-11T15:01:51.211Z,17.70
2023-02-11T15:04:32.874Z,15.40
2023-02-11T15:07:04.845Z,15.10
2023-02-11T15:09:41.297Z,15.80
2023-02-11T15:12:20.243Z,15.10
2023-02-11T15:14:49.590Z,19.60
2023-02-11T15:17:22.242Z,14.70
2023-02-11T15:19:53.275Z,16.50
2023-02-11T15:22:24.070Z,13.10
2023-02-11T15:25:03.999Z,17.80
2023-02-11T15:27:42.393Z,18.70
2023-02-11T15:30:24.591Z,14.80
2023-02-11T15:33:00.390Z,14.10
2023-02-11T15:35:28.800Z,13.30
2023-02-11T15:37:57.431Z,12.60
2023-02-11T15:40:30.170Z,13.60
2023-02-11T15:42:59.950Z,15.90
2023-02-11T15:45:32.694Z,15.70
2023-02-11T15:48:21.676Z,18.50
2023-02-11T15:50:52.966Z,16.80
2023-02-11T15:53:28.953Z,16.70
2023-02-11T15:56:17.619Z,14.60
2023-02-11T15:58:47.619Z,17.40
2023-02-11T16:01:14.499Z,15.50
2023-02-11T16:03:43.107Z,16.30
2023-02-11T16:06:25.005Z,16.80
2023-02-11T16:09:22.276Z,15.10
2023-02-11T16:11:48.913Z,15.90
2023-02-11T16:14:27.836Z,20.10
2023-02-11T16:16:56.015Z,18.70
2023-02-11T16:19:25.933Z,18.00
2023-02-11T16:21:54.396Z,20.50
2023-02-11T16:24:28.242Z,20.10
2023-02-11T16:27:03.420Z,25.90
2023-02-11T16:29:32.489Z,21.00
2023-02-11T16:32:09.334Z,21.90
2023-02-11T16:34:37.237Z,24.40
2023-02-11T16:37:05.554Z,22.20
2023-02-11T16:39:32.622Z,25.40
2023-02-11T16:42:00.444Z,26.30
2023-02-11T16:44:28.207Z,24.60
2023-02-11T16:46:55.813Z,29.00
2023-02-11T16:49:51.926Z,32.50
2023-02-11T16:52:20.328Z,30.50
2023-02-11T16:54:46.969Z,29.20
2023-02-11T16:57:15.879Z,33.80
2023-02-11T16:59:43.097Z,26.60
2023-02-11T17:02:22.930Z,25.50
2023-02-11T17:04:52.815Z,27.20
2023-02-11T17:07:19.548Z,27.90
2023-02-11T17:09:46.223Z,30.40
2023-02-11T17:12:12.873Z,31.40
2023-02-11T17:14:39.562Z,36.10
2023-02-11T17:17:06.357Z,44.30
2023-02-11T17:19:33.011Z,36.80
2023-02-11T17:21:59.604Z,32.50
2023-02-11T17:24:26.223Z,29.80
2023-02-11T17:26:52.996Z,27.20
2023-02-11T17:29:23.224Z,27.20
2023-02-11T17:31:53.927Z,25.20
2023-02-11T17:34:22.672Z,26.30
2023-02-11T17:36:49.443Z,25.80
2023-02-11T17:39:16.339Z,23.60
2023-02-11T17:41:43.023Z,27.00
2023-02-11T17:44:12.574Z,28.20
2023-02-11T17:46:39.442Z,27.60
2023-02-11T17:49:06.147Z,25.50
2023-02-11T17:51:35.086Z,27.50
2023-02-11T17:54:04.937Z,27.70
2023-02-11T17:56:33.271Z,26.00
2023-02-11T17:59:00.010Z,28.40
2023-02-11T18:01:28.144Z,24.00
2023-02-11T18:03:54.947Z,27.00
2023-02-11T18:06:21.963Z,26.30
2023-02-11T18:08:49.193Z,27.30
2023-02-11T18:11:16.438Z,25.90
2023-02-11T18:13:51.541Z,25.60
2023-02-11T18:16:18.292Z,27.90
2023-02-11T18:18:44.992Z,28.70
2023-02-11T18:21:16.157Z,26.80
2023-02-11T18:23:43.885Z,28.50
2023-02-11T18:26:12.792Z,24.20
2023-02-11T18:28:39.963Z,33.40
2023-02-11T18:31:07.979Z,46.70
2023-02-11T18:33:37.244Z,35.10
2023-02-11T18:36:08.804Z,25.30
2023-02-11T18:38:36.260Z,34.30
2023-02-11T18:41:04.186Z,25.70
2023-02-11T18:43:33.829Z,29.10
2023-02-11T18:46:02.185Z,30.00
2023-02-11T18:48:29.205Z,36.80
2023-02-11T18:50:56.077Z,32.70
2023-02-11T18:53:25.076Z,32.80
2023-02-11T18:55:53.710Z,35.70
2023-02-11T18:58:21.465Z,37.50
2023-02-11T19:00:49.244Z,38.40
2023-02-11T19:03:16.638Z,32.60
2023-02-11T19:05:48.850Z,34.10
2023-02-11T19:10:44.861Z,32.40
2023-02-11T19:13:12.681Z,28.60
2023-02-11T19:15:46.348Z,31.20
2023-02-11T19:18:15.033Z,29.80
2023-02-11T19:20:43.463Z,26.70
2023-02-11T19:23:11.064Z,29.60
2023-02-11T19:25:38.236Z,27.40
2023-02-11T19:28:04.939Z,25.80
2023-02-11T19:30:31.811Z,23.40
2023-02-11T19:32:58.429Z,26.60
2023-02-11T19:35:25.606Z,24.90
2023-02-11T19:37:52.315Z,27.40
2023-02-11T19:40:21.227Z,28.50
2023-02-11T19:42:50.673Z,30.70
2023-02-11T19:45:17.481Z,36.60
2023-02-11T19:47:44.469Z,28.00
2023-02-11T19:50:11.624Z,26.30
2023-02-11T19:52:39.090Z,22.60
2023-02-11T19:55:06.394Z,23.50
2023-02-11T19:57:33.078Z,25.10
2023-02-11T19:59:59.759Z,29.30
2023-02-11T20:02:26.410Z,26.80
2023-02-11T20:04:53.096Z,26.30
2023-02-11T20:07:19.762Z,25.90
2023-02-11T20:09:46.364Z,27.30
2023-02-11T20:12:13.132Z,27.50
2023-02-11T20:14:39.750Z,24.80
2023-02-11T20:17:06.492Z,23.10
2023-02-11T20:19:33.143Z,23.60
2023-02-11T20:21:59.747Z,25.20
2023-02-11T20:24:26.590Z,23.10
2023-02-11T20:26:56.051Z,22.60
2023-02-11T20:29:24.515Z,25.40
2023-02-11T20:31:51.259Z,23.60
2023-02-11T20:34:18.297Z,29.20
2023-02-11T20:36:51.965Z,31.80
2023-02-11T20:39:22.025Z,26.30
2023-02-11T20:41:50.241Z,24.00
2023-02-11T20:44:16.908Z,27.10
2023-02-11T20:46:46.839Z,22.10
2023-02-11T20:49:22.539Z,28.20
2023-02-11T20:51:50.100Z,24.70
2023-02-11T20:54:19.424Z,28.90
2023-02-11T20:56:48.180Z,28.20
2023-02-11T20:59:16.904Z,28.20
2023-02-11T21:01:46.509Z,23.60
2023-02-11T21:04:18.547Z,22.50
2023-02-11T21:06:47.908Z,28.40
2023-02-11T21:09:17.431Z,27.80
2023-02-11T21:11:44.125Z,26.80
2023-02-11T21:14:12.634Z,27.40
2023-02-11T21:16:40.121Z,24.10
2023-02-11T21:19:07.557Z,32.90
2023-02-11T21:21:38.886Z,33.20
2023-02-11T21:24:06.914Z,35.50
2023-02-11T21:26:35.487Z,33.30
2023-02-11T21:29:03.983Z,31.50
2023-02-11T21:31:32.470Z,38.20
2023-02-11T21:34:02.083Z,31.80
2023-02-11T21:36:29.801Z,32.70
2023-02-11T21:38:56.756Z,28.00
2023-02-11T21:41:24.870Z,30.30
2023-02-11T21:43:52.336Z,26.10
2023-02-11T21:46:20.502Z,25.70
2023-02-11T21:48:48.191Z,24.10
2023-02-11T21:51:18.850Z,24.00
2023-02-11T21:53:46.002Z,28.50
2023-02-11T21:56:15.321Z,26.30
2023-02-11T21:58:42.310Z,26.20
2023-02-11T22:01:20.251Z,24.80
2023-02-11T22:03:47.319Z,21.40
2023-02-11T22:06:17.534Z,22.20
2023-02-11T22:08:44.758Z,24.40
2023-02-11T22:11:13.365Z,23.10
2023-02-11T22:13:41.380Z,30.90
2023-02-11T22:16:11.325Z,27.00
2023-02-11T22:18:38.327Z,29.60
2023-02-11T22:21:07.340Z,23.80
2023-02-11T22:23:34.670Z,20.70
2023-02-11T22:26:05.886Z,18.80
2023-02-11T22:28:33.081Z,18.80
2023-02-11T22:31:00.202Z,21.30
2023-02-11T22:33:28.682Z,18.60
2023-02-11T22:36:04.693Z,18.00
2023-02-11T22:38:33.255Z,17.70
2023-02-11T22:41:05.087Z,16.20
2023-02-11T22:43:31.927Z,16.20
2023-02-11T22:46:03.250Z,18.60
2023-02-11T22:48:30.390Z,20.70
2023-02-11T22:50:57.161Z,18.30
2023-02-11T22:53:25.646Z,19.50
2023-02-11T22:55:52.605Z,24.70
2023-02-11T22:58:19.432Z,17.30
2023-02-11T23:00:46.077Z,21.10
2023-02-11T23:03:13.469Z,21.90
2023-02-11T23:05:41.900Z,18.10
2023-02-11T23:08:10.708Z,21.70
2023-02-11T23:10:39.820Z,20.20
2023-02-11T23:13:07.707Z,16.50
2023-02-11T23:15:38.535Z,16.70
2023-02-11T23:18:05.461Z,18.80
2023-02-11T23:20:35.438Z,19.70
2023-02-11T23:23:03.072Z,20.00
2023-02-11T23:25:30.261Z,20.80
2023-02-11T23:27:57.658Z,23.70
2023-02-11T23:30:24.760Z,23.20
2023-02-11T23:32:52.328Z,19.70
2023-02-11T23:35:24.900Z,20.80
2023-02-11T23:37:54.174Z,22.00
2023-02-11T23:40:22.733Z,19.50
2023-02-11T23:42:49.336Z,23.20
2023-02-11T23:45:16.030Z,22.30
2023-02-11T23:47:42.716Z,20.40
2023-02-11T23:50:10.199Z,20.00
2023-02-11T23:52:37.562Z,17.90
2023-02-11T23:55:05.051Z,17.50
2023-02-11T23:57:33.024Z,20.30
2023-02-11T23:59:59.669Z,18.50
